Time;durP1;ratioP1;P1;durP2;ratioP2;P2;SDS_P1;SDS_P2;PMS_P1;PMS_P2;Temp;Humidity;BMP_temperature;BMP_pressure;BME280_temperature;BME280_humidity;BME280_pressure;Samples;Min_cycle;Max_cycle;Signal;HPM_P1;HPM_P2
2021/12/11 00:01:11;;;;;;;9.40;7.12;;;;;;;8.35;100.00;98820.19;1731060;83;21781;-69
2021/12/11 00:03:41;;;;;;;7.20;4.78;;;;;;;8.32;100.00;98821.16;1731679;83;20967;-69
2021/12/11 00:06:27;;;;;;;6.97;5.28;;;;;;;8.33;100.00;98829.77;1731353;83;20948;-69
2021/12/11 00:08:59;;;;;;;6.65;4.80;;;;;;;8.35;100.00;98834.44;1731372;83;20992;-69
2021/12/11 00:11:31;;;;;;;6.20;5.00;;;;;;;8.36;100.00;98825.76;1729537;83;20921;-70
2021/12/11 00:13:59;;;;;;;7.03;4.67;;;;;;;8.36;100.00;98820.13;1730933;83;21550;-70
2021/12/11 00:16:28;;;;;;;8.23;4.58;;;;;;;8.36;100.00;98823.17;1731369;83;20937;-70
2021/12/11 00:19:03;;;;;;;6.83;4.90;;;;;;;8.34;100.00;98819.80;1731436;81;20948;-70
2021/12/11 00:21:30;;;;;;;6.47;5.22;;;;;;;8.29;100.00;98815.61;1731057;83;21035;-70
2021/12/11 00:24:05;;;;;;;6.75;5.67;;;;;;;8.27;100.00;98821.31;1731451;83;21007;-70
2021/12/11 00:26:36;;;;;;;8.58;5.28;;;;;;;8.26;100.00;98817.03;1731311;83;21506;-70
2021/12/11 00:29:04;;;;;;;7.42;4.92;;;;;;;8.26;100.00;98823.52;1731758;83;21047;-70
2021/12/11 00:31:30;;;;;;;7.25;4.78;;;;;;;8.27;100.00;98821.77;1731399;83;21008;-69
2021/12/11 00:33:57;;;;;;;7.87;6.08;;;;;;;8.26;100.00;98820.92;1731270;83;20929;-69
2021/12/11 00:36:31;;;;;;;7.53;5.28;;;;;;;8.26;100.00;98819.63;1731419;83;20995;-69
2021/12/11 00:38:55;;;;;;;8.88;5.22;;;;;;;8.27;100.00;98816.58;1730898;81;21105;-69
2021/12/11 00:41:21;;;;;;;5.37;4.87;;;;;;;8.27;100.00;98810.11;1652311;83;21071;-69
2021/12/11 00:43:49;;;;;;;5.85;4.92;;;;;;;8.25;100.00;98824.42;1731304;83;20940;-70
2021/12/11 00:46:21;;;;;;;8.25;5.37;;;;;;;8.25;100.00;98813.21;1731314;83;20964;-70
2021/12/11 00:48:47;;;;;;;6.12;5.10;;;;;;;8.22;100.00;98815.48;1729876;81;21404;-70
2021/12/11 00:51:18;;;;;;;5.78;5.20;;;;;;;8.22;100.00;98813.34;1731346;83;21523;-69
2021/12/11 00:53:54;;;;;;;5.75;5.20;;;;;;;8.20;100.00;98812.11;1731323;83;21008;-70
2021/12/11 00:56:37;;;;;;;8.68;5.58;;;;;;;8.19;100.00;98810.91;1731463;83;21032;-70
2021/12/11 00:59:08;;;;;;;7.70;5.05;;;;;;;8.17;100.00;98812.72;1731285;81;20975;-69
2021/12/11 01:01:39;;;;;;;6.25;4.78;;;;;;;8.15;100.00;98817.95;1731447;83;21380;-70
2021/12/11 01:04:13;;;;;;;5.87;5.00;;;;;;;8.13;100.00;98824.95;1730438;83;21542;-69
2021/12/11 01:06:47;;;;;;;7.87;5.42;;;;;;;8.13;100.00;98815.88;1731112;81;21015;-69
2021/12/11 01:09:23;;;;;;;5.60;4.20;;;;;;;8.13;100.00;98821.52;1731688;83;21019;-69
2021/12/11 01:12:01;;;;;;;5.03;4.30;;;;;;;8.10;100.00;98828.95;1731321;83;21011;-70
2021/12/11 01:14:39;;;;;;;7.28;4.80;;;;;;;8.10;100.00;98821.64;1731082;83;21357;-69
2021/12/11 01:17:20;;;;;;;6.45;5.08;;;;;;;8.11;100.00;98825.45;1731449;83;21123;-69
2021/12/11 01:19:51;;;;;;;6.78;5.28;;;;;;;8.09;100.00;98818.66;1731259;83;20928;-69
2021/12/11 01:22:33;;;;;;;6.70;4.83;;;;;;;8.05;100.00;98820.52;1731339;83;20921;-69
2021/12/11 01:25:19;;;;;;;5.65;4.20;;;;;;;8.05;100.00;98809.32;1731641;83;20988;-69
2021/12/11 01:27:50;;;;;;;5.80;5.00;;;;;;;8.03;100.00;98820.19;1731466;83;20952;-70
2021/12/11 01:30:23;;;;;;;5.90;5.12;;;;;;;8.03;100.00;98828.80;1731140;83;21100;-70
2021/12/11 01:32:50;;;;;;;6.20;4.85;;;;;;;8.02;100.00;98814.17;1730958;83;21006;-70
2021/12/11 01:35:17;;;;;;;6.03;4.80;;;;;;;7.99;100.00;98821.25;1731574;83;20980;-71
2021/12/11 01:37:45;;;;;;;6.50;4.70;;;;;;;7.96;100.00;98818.33;1731276;83;21444;-70
2021/12/11 01:40:13;;;;;;;8.75;5.45;;;;;;;7.93;100.00;98817.16;1731568;83;21487;-70
2021/12/11 01:42:41;;;;;;;5.75;5.12;;;;;;;7.88;100.00;98814.75;1731374;83;21811;-70
2021/12/11 01:45:12;;;;;;;5.17;4.60;;;;;;;7.86;100.00;98821.73;1731259;83;20976;-70
2021/12/11 01:47:41;;;;;;;6.22;5.28;;;;;;;7.85;100.00;98821.80;1731221;83;20944;-70
2021/12/11 01:50:13;;;;;;;6.08;5.47;;;;;;;7.82;100.00;98805.93;1702590;83;20987;-70
2021/12/11 01:52:51;;;;;;;8.45;5.12;;;;;;;7.83;100.00;98811.95;1722296;80;20940;-70
2021/12/11 01:55:26;;;;;;;9.93;5.47;;;;;;;7.78;100.00;98809.58;1731581;83;22157;-69
2021/12/11 01:57:53;;;;;;;6.12;5.28;;;;;;;7.75;100.00;98801.92;1731392;83;21014;-70
2021/12/11 02:00:42;;;;;;;6.00;5.05;;;;;;;7.75;100.00;98808.84;1731189;81;21023;-70
2021/12/11 02:03:14;;;;;;;6.80;5.83;;;;;;;7.73;100.00;98810.66;1731355;83;20929;-70
2021/12/11 02:05:40;;;;;;;7.55;4.90;;;;;;;7.69;100.00;98802.61;1730824;83;21511;-71
2021/12/11 02:08:11;;;;;;;8.63;5.10;;;;;;;7.69;100.00;98815.11;1731269;83;21597;-70
2021/12/11 02:10:45;;;;;;;6.15;4.87;;;;;;;7.69;100.00;98807.79;1731438;83;21025;-70
2021/12/11 02:13:20;;;;;;;7.60;5.87;;;;;;;7.68;100.00;98809.98;1729977;83;20948;-70
2021/12/11 02:15:49;;;;;;;7.65;5.22;;;;;;;7.64;100.00;98804.09;1730923;83;21443;-70
2021/12/11 02:18:34;;;;;;;6.67;4.95;;;;;;;7.60;100.00;98787.84;1730710;83;21008;-70
2021/12/11 02:21:09;;;;;;;5.97;5.17;;;;;;;7.58;100.00;98800.47;1730331;83;21970;-71
2021/12/11 02:23:36;;;;;;;6.78;5.70;;;;;;;7.54;100.00;98802.78;1731494;83;20936;-69
2021/12/11 02:26:07;;;;;;;5.60;5.08;;;;;;;7.53;100.00;98800.65;1731461;83;21007;-69
2021/12/11 02:28:48;;;;;;;7.17;5.03;;;;;;;7.49;100.00;98798.23;1731469;83;20972;-69
2021/12/11 02:31:31;;;;;;;6.00;5.08;;;;;;;7.45;100.00;98806.56;1731459;83;20948;-70
2021/12/11 02:34:10;;;;;;;7.97;5.80;;;;;;;7.44;100.00;98807.47;1731407;83;21404;-69
2021/12/11 02:36:51;;;;;;;6.42;5.75;;;;;;;7.41;100.00;98808.88;1724288;83;20924;-69
2021/12/11 02:39:32;;;;;;;6.37;4.65;;;;;;;7.38;100.00;98806.88;1731463;83;21420;-70
2021/12/11 02:42:10;;;;;;;6.55;5.40;;;;;;;7.38;100.00;98821.11;1731414;83;20936;-70
2021/12/11 02:44:53;;;;;;;5.70;5.03;;;;;;;7.38;100.00;98820.66;1731533;83;20972;-69
2021/12/11 02:47:28;;;;;;;8.58;5.75;;;;;;;7.40;100.00;98820.58;1731370;83;21213;-69
2021/12/11 02:50:03;;;;;;;6.83;4.78;;;;;;;7.41;100.00;98821.81;1731188;83;21027;-70
2021/12/11 02:52:44;;;;;;;5.53;4.87;;;;;;;7.43;100.00;98812.70;1731103;83;21114;-70
2021/12/11 02:55:24;;;;;;;6.17;5.28;;;;;;;7.41;100.00;98810.17;1731436;83;21015;-70
2021/12/11 02:57:57;;;;;;;7.05;5.87;;;;;;;7.44;100.00;98805.33;1731527;83;21059;-70
2021/12/11 03:00:31;;;;;;;7.00;5.42;;;;;;;7.43;100.00;98803.64;1731787;83;21119;-70
2021/12/11 03:03:02;;;;;;;6.75;5.50;;;;;;;7.41;100.00;98784.30;1731709;83;21389;-70
2021/12/11 03:05:38;;;;;;;7.03;5.30;;;;;;;7.43;100.00;98801.90;1731415;83;20948;-70
2021/12/11 03:08:01;;;;;;;8.80;5.92;;;;;;;7.44;100.00;98813.94;1730459;81;21513;-70
2021/12/11 03:10:27;;;;;;;8.88;5.92;;;;;;;7.42;100.00;98818.32;1731503;83;20928;-69
2021/12/11 03:12:55;;;;;;;6.95;5.67;;;;;;;7.39;100.00;98807.28;1731644;83;22138;-70
2021/12/11 03:15:21;;;;;;;6.17;5.58;;;;;;;7.33;100.00;98796.70;1731241;83;20984;-70
2021/12/11 03:17:48;;;;;;;7.42;6.00;;;;;;;7.32;100.00;98798.91;1731759;83;20956;-70
2021/12/11 03:20:17;;;;;;;7.70;6.65;;;;;;;7.32;100.00;98794.18;1731332;83;20948;-70
2021/12/11 03:22:43;;;;;;;6.90;5.92;;;;;;;7.32;100.00;98785.12;1731531;83;20975;-69
2021/12/11 03:25:14;;;;;;;8.38;5.85;;;;;;;7.31;100.00;98794.63;1731366;83;22128;-69
2021/12/11 03:27:40;;;;;;;6.95;5.45;;;;;;;7.32;100.00;98807.11;1731365;83;21058;-70
2021/12/11 03:30:11;;;;;;;6.78;6.12;;;;;;;7.32;100.00;98799.35;1731524;83;21023;-70
2021/12/11 03:32:38;;;;;;;6.08;5.47;;;;;;;7.33;100.00;98804.47;1731652;83;21404;-70
2021/12/11 03:35:05;;;;;;;5.80;5.25;;;;;;;7.36;100.00;98800.47;1731341;83;20976;-70
2021/12/11 03:37:33;;;;;;;6.85;5.58;;;;;;;7.38;100.00;98790.91;1731353;83;21939;-70
2021/12/11 03:39:59;;;;;;;6.00;5.35;;;;;;;7.38;100.00;98793.95;1731283;83;20940;-70
2021/12/11 03:42:32;;;;;;;8.95;5.47;;;;;;;7.34;100.00;98796.27;1731420;81;20932;-70
2021/12/11 03:45:00;;;;;;;;;;;;;;;7.31;100.00;98806.72;1734027;83;20932;-70
2021/12/11 03:47:30;;;;;;;10.82;6.22;;;;;;;7.30;100.00;98802.45;1731496;83;20145;-70
2021/12/11 03:49:57;;;;;;;5.97;4.95;;;;;;;7.32;100.00;98808.41;1725334;83;21119;-70
2021/12/11 03:52:24;;;;;;;7.60;5.70;;;;;;;7.34;100.00;98812.63;1721508;83;21520;-70
2021/12/11 03:54:52;;;;;;;8.40;6.35;;;;;;;7.38;100.00;98813.36;1721416;83;21024;-70
2021/12/11 03:57:22;;;;;;;5.30;4.78;;;;;;;7.41;100.00;98818.38;1721555;83;20968;-70
2021/12/11 03:59:49;;;;;;;7.15;5.40;;;;;;;7.43;100.00;98813.54;1721585;82;20933;-70
2021/12/11 04:02:21;;;;;;;7.35;5.60;;;;;;;7.45;100.00;98813.03;1721487;83;21248;-70
2021/12/11 04:04:53;;;;;;;8.13;6.47;;;;;;;7.48;100.00;98814.22;1721702;83;21389;-69
2021/12/11 04:07:24;;;;;;;7.87;6.55;;;;;;;7.50;100.00;98808.98;1721849;82;21016;-70
2021/12/11 04:09:51;;;;;;;6.22;5.62;;;;;;;7.51;100.00;98803.75;1721746;83;20956;-70
2021/12/11 04:12:20;;;;;;;7.45;6.53;;;;;;;7.53;100.00;98794.18;1721524;83;20937;-70
2021/12/11 04:14:49;;;;;;;6.30;5.35;;;;;;;7.54;100.00;98783.38;1721798;83;21442;-70
2021/12/11 04:17:22;;;;;;;8.60;5.80;;;;;;;7.54;100.00;98783.38;1721497;83;20974;-69
2021/12/11 04:19:51;;;;;;;7.87;6.20;;;;;;;7.54;100.00;98779.05;1721732;83;20949;-70
2021/12/11 04:22:18;;;;;;;8.45;6.37;;;;;;;7.55;100.00;98774.27;1721487;83;21397;-70
2021/12/11 04:24:44;;;;;;;7.50;5.67;;;;;;;7.56;100.00;98778.53;1721755;83;21032;-70
2021/12/11 04:27:14;;;;;;;7.58;5.17;;;;;;;7.57;100.00;98783.26;1721467;83;21975;-70
2021/12/11 04:29:42;;;;;;;6.58;5.87;;;;;;;7.56;100.00;98782.41;1721681;83;21024;-70
2021/12/11 04:32:09;;;;;;;7.87;5.53;;;;;;;7.57;100.00;98789.73;1721456;83;21388;-70
2021/12/11 04:34:35;;;;;;;6.05;5.17;;;;;;;7.57;100.00;98781.97;1721769;83;20992;-70
2021/12/11 04:37:12;;;;;;;7.80;5.25;;;;;;;7.59;100.00;98778.87;1721476;83;20980;-70
2021/12/11 04:39:40;;;;;;;6.12;4.72;;;;;;;7.60;100.00;98780.07;1721813;83;21409;-70
2021/12/11 04:42:18;;;;;;;6.92;5.97;;;;;;;7.64;100.00;98783.38;1721669;83;20940;-69
2021/12/11 04:44:41;;;;;;;8.08;4.95;;;;;;;7.66;100.00;98775.56;1719870;82;21388;-69
2021/12/11 04:47:14;;;;;;;7.67;4.90;;;;;;;7.68;100.00;98764.24;1722089;83;21017;-70
2021/12/11 04:49:50;;;;;;;7.67;5.30;;;;;;;7.69;100.00;98763.79;1724905;82;20931;-70
2021/12/11 04:52:18;;;;;;;8.98;5.75;;;;;;;7.71;100.00;98756.36;1728459;83;21149;-70
2021/12/11 05:00:19;;;;;;;6.92;5.12;;;;;;;7.78;100.00;98737.54;1731280;81;20984;-69
2021/12/11 05:03:26;;;;;;;7.15;5.67;;;;;;;7.81;100.00;98736.09;1729797;83;20944;-69
2021/12/11 05:10:53;;;;;;;8.15;5.65;;;;;;;7.78;100.00;98747.45;1731331;83;20999;-69
2021/12/11 05:13:10;;;;;;;6.83;6.05;;;;;;;7.77;100.00;98752.69;1728829;83;20988;-69
2021/12/11 05:15:39;;;;;;;9.68;6.60;;;;;;;7.78;100.00;98755.21;1731287;83;21015;-69
2021/12/11 05:18:12;;;;;;;7.67;5.55;;;;;;;7.82;100.00;98759.78;1731186;83;21135;-69
2021/12/11 05:20:39;;;;;;;9.43;6.20;;;;;;;7.84;100.00;98751.50;1731625;83;21361;-69
2021/12/11 05:23:06;;;;;;;6.20;5.17;;;;;;;7.87;100.00;98747.50;1731293;83;20936;-70
2021/12/11 05:25:32;;;;;;;7.53;6.08;;;;;;;7.87;100.00;98750.92;1731373;83;21468;-70
2021/12/11 05:27:59;;;;;;;10.28;6.35;;;;;;;7.87;100.00;98744.45;1731334;83;20996;-70
2021/12/11 05:30:34;;;;;;;9.93;5.97;;;;;;;7.87;100.00;98741.86;1731371;83;21118;-70
2021/12/11 05:33:00;;;;;;;7.35;5.30;;;;;;;7.89;100.00;98743.09;1731237;83;21138;-70
2021/12/11 05:35:29;;;;;;;6.47;5.80;;;;;;;7.89;100.00;98741.80;1731311;83;20916;-70
2021/12/11 05:37:57;;;;;;;9.10;7.10;;;;;;;7.90;100.00;98751.25;1731314;83;20959;-69
2021/12/11 05:40:25;;;;;;;9.98;7.87;;;;;;;7.86;100.00;98749.23;1731555;83;20996;-69
2021/12/11 05:42:51;;;;;;;9.38;7.12;;;;;;;7.87;100.00;98747.50;1731270;83;22150;-69
2021/12/11 05:45:17;;;;;;;6.22;5.62;;;;;;;7.89;100.00;98761.22;1731193;83;20940;-70
2021/12/11 05:47:44;;;;;;;8.00;6.00;;;;;;;7.89;100.00;98765.11;1731454;83;21428;-69
2021/12/11 05:50:16;;;;;;;8.43;6.83;;;;;;;7.91;100.00;98760.25;1727046;83;21023;-69
2021/12/11 05:52:43;;;;;;;9.10;7.47;;;;;;;7.92;100.00;98763.23;1720961;82;21028;-70
2021/12/11 05:55:13;;;;;;;10.65;8.03;;;;;;;7.92;100.00;98756.77;1721834;83;21028;-70
2021/12/11 05:57:37;;;;;;;7.20;5.85;;;;;;;7.94;100.00;98761.88;1721160;83;20932;-70
2021/12/11 06:00:10;;;;;;;8.40;6.62;;;;;;;7.98;100.00;98766.03;1721824;82;21040;-70
2021/12/11 06:02:36;;;;;;;10.28;7.12;;;;;;;7.99;100.00;98761.69;1721668;83;20987;-70
2021/12/11 06:05:03;;;;;;;9.95;6.62;;;;;;;8.00;100.00;98756.42;1721949;83;21028;-70
2021/12/11 06:07:30;;;;;;;8.93;6.83;;;;;;;8.01;100.00;98773.64;1721610;83;21104;-70
2021/12/11 06:10:01;;;;;;;9.45;6.97;;;;;;;8.01;100.00;98763.28;1721772;83;20976;-70
2021/12/11 06:12:27;;;;;;;8.20;6.40;;;;;;;7.99;100.00;98762.53;1721585;83;21031;-70
2021/12/11 06:14:54;;;;;;;8.83;7.70;;;;;;;8.00;100.00;98764.19;1721839;83;20945;-70
2021/12/11 06:17:29;;;;;;;10.38;7.50;;;;;;;8.01;100.00;98765.87;1721677;83;21035;-70
2021/12/11 06:19:56;;;;;;;10.63;7.30;;;;;;;8.01;100.00;98771.05;1721898;83;21142;-70
2021/12/11 06:22:27;;;;;;;9.18;7.40;;;;;;;8.02;100.00;98766.27;1721549;83;21497;-70
2021/12/11 06:24:54;;;;;;;11.28;8.00;;;;;;;8.03;100.00;98768.40;1721035;83;20981;-70
2021/12/11 06:27:21;;;;;;;9.43;8.03;;;;;;;8.01;100.00;98768.46;1721623;83;21551;-70
2021/12/11 06:29:47;;;;;;;8.95;7.05;;;;;;;8.01;100.00;98767.63;1721959;83;20940;-70
2021/12/11 06:32:13;;;;;;;8.13;6.70;;;;;;;8.06;100.00;98778.19;1721665;83;22090;-70
2021/12/11 06:34:40;;;;;;;7.70;6.58;;;;;;;8.07;100.00;98773.39;1721715;83;20968;-70
2021/12/11 06:37:08;;;;;;;9.85;7.83;;;;;;;8.10;100.00;98773.72;1721586;83;21381;-70
2021/12/11 06:39:34;;;;;;;7.47;6.35;;;;;;;8.09;100.00;98770.28;1721827;83;21472;-70
2021/12/11 06:42:03;;;;;;;9.98;6.08;;;;;;;8.09;100.00;98770.74;1721627;83;21027;-70
2021/12/11 06:44:29;;;;;;;8.93;7.75;;;;;;;8.12;100.00;98771.45;1721880;83;21054;-70
2021/12/11 06:46:58;;;;;;;11.50;7.95;;;;;;;8.14;100.00;98772.23;1721524;83;21441;-70
2021/12/11 06:49:27;;;;;;;10.28;8.33;;;;;;;8.16;100.00;98770.42;1721768;83;21483;-70
2021/12/11 06:51:53;;;;;;;9.65;6.47;;;;;;;8.18;100.00;98775.09;1721506;83;21460;-70
2021/12/11 06:54:20;;;;;;;9.95;8.45;;;;;;;8.23;100.00;98776.16;1721619;83;20949;-70
2021/12/11 06:56:47;;;;;;;8.88;7.97;;;;;;;8.22;100.00;98775.77;1721856;83;21448;-69
2021/12/11 06:59:14;;;;;;;10.95;8.80;;;;;;;8.20;100.00;98770.66;1721439;82;21045;-69
2021/12/11 07:01:41;;;;;;;11.70;9.05;;;;;;;8.19;100.00;98773.34;1721549;83;21079;-69
2021/12/11 07:04:11;;;;;;;10.82;8.48;;;;;;;8.17;100.00;98776.00;1721524;83;20960;-69
2021/12/11 07:06:43;;;;;;;11.68;8.93;;;;;;;8.18;100.00;98772.50;1721608;83;21047;-70
2021/12/11 07:09:10;;;;;;;12.30;9.50;;;;;;;8.19;100.00;98776.74;1721161;83;21504;-70
2021/12/11 07:11:39;;;;;;;12.90;9.53;;;;;;;8.19;100.00;98772.05;1721710;83;20933;-70
2021/12/11 07:14:07;;;;;;;9.23;7.08;;;;;;;8.19;100.00;98779.33;1721550;83;20932;-70
2021/12/11 07:16:34;;;;;;;8.40;7.20;;;;;;;8.22;100.00;98787.43;1721498;83;20972;-70
2021/12/11 07:19:01;;;;;;;8.98;7.40;;;;;;;8.19;100.00;98785.00;1721478;83;21113;-70
2021/12/11 07:21:28;;;;;;;12.43;8.95;;;;;;;8.19;100.00;98790.18;1721603;83;21536;-69
2021/12/11 07:23:55;;;;;;;12.23;9.50;;;;;;;8.18;100.00;98798.41;1721497;83;21483;-70
2021/12/11 07:26:30;;;;;;;10.68;8.18;;;;;;;8.18;100.00;98794.97;1721702;83;21056;-69
2021/12/11 07:28:54;;;;;;;10.68;8.43;;;;;;;8.20;100.00;98797.86;1720825;83;20980;-70
2021/12/11 07:31:21;;;;;;;11.10;8.88;;;;;;;8.22;100.00;98803.81;1721500;83;21008;-70
2021/12/11 07:33:49;;;;;;;11.10;9.40;;;;;;;8.26;100.00;98804.53;1721573;83;22126;-70
2021/12/11 07:36:16;;;;;;;10.35;7.92;;;;;;;8.23;100.00;98804.20;1721404;83;20968;-70
2021/12/11 07:38:42;;;;;;;9.43;8.43;;;;;;;8.21;100.00;98803.42;1721604;83;20984;-70
2021/12/11 07:41:11;;;;;;;9.93;8.10;;;;;;;8.17;100.00;98798.47;1721572;83;20952;-69
2021/12/11 07:43:38;;;;;;;9.83;8.83;;;;;;;8.14;100.00;98791.66;1721713;83;20980;-69
2021/12/11 07:46:05;;;;;;;10.03;9.00;;;;;;;8.11;100.00;98796.97;1721470;83;21553;-70
2021/12/11 07:48:32;;;;;;;13.00;8.98;;;;;;;8.08;100.00;98796.25;1721405;83;20925;-70
2021/12/11 07:50:59;;;;;;;9.40;8.08;;;;;;;8.03;100.00;98797.73;1721366;83;20933;-70
2021/12/11 07:53:26;;;;;;;9.08;7.78;;;;;;;8.00;100.00;98797.01;1721535;83;21081;-70
2021/12/11 07:55:52;;;;;;;12.30;8.60;;;;;;;7.98;100.00;98793.22;1721719;83;20988;-70
2021/12/11 07:58:19;;;;;;;9.13;7.70;;;;;;;7.96;100.00;98793.73;1721457;82;21553;-70
2021/12/11 08:00:47;;;;;;;8.08;7.28;;;;;;;7.96;100.00;98791.14;1721647;83;20924;-71
2021/12/11 08:03:14;;;;;;;9.23;7.85;;;;;;;7.98;100.00;98800.98;1721561;83;20972;-70
2021/12/11 08:05:42;;;;;;;11.75;8.38;;;;;;;8.00;100.00;98799.59;1721873;83;21539;-71
2021/12/11 08:08:10;;;;;;;11.10;8.88;;;;;;;7.99;100.00;98794.06;1721580;83;20929;-70
2021/12/11 08:10:38;;;;;;;9.33;8.18;;;;;;;8.03;100.00;98794.30;1721714;83;21482;-69
2021/12/11 08:13:05;;;;;;;11.00;8.33;;;;;;;8.06;100.00;98798.91;1721379;83;21020;-69
2021/12/11 08:15:33;;;;;;;10.63;8.13;;;;;;;8.07;100.00;98801.04;1721522;83;21440;-69
2021/12/11 08:17:59;;;;;;;8.95;7.42;;;;;;;8.05;100.00;98800.25;1721500;83;20952;-69
2021/12/11 08:20:29;;;;;;;10.13;8.18;;;;;;;8.05;100.00;98800.25;1721844;83;20924;-69
2021/12/11 08:22:56;;;;;;;11.75;8.78;;;;;;;8.05;100.00;98797.67;1721540;83;21112;-70
2021/12/11 08:25:25;;;;;;;9.35;7.70;;;;;;;8.05;100.00;98802.39;1721394;83;20989;-70
2021/12/11 08:27:52;;;;;;;9.38;7.72;;;;;;;8.08;100.00;98806.16;1721689;83;21055;-70
2021/12/11 08:30:19;;;;;;;11.60;8.85;;;;;;;8.10;100.00;98803.50;1721455;83;20929;-70
2021/12/11 08:32:46;;;;;;;11.22;7.72;;;;;;;8.12;100.00;98806.42;1721778;83;20925;-70
2021/12/11 08:35:12;;;;;;;9.73;7.35;;;;;;;8.16;100.00;98804.55;1721442;83;21498;-70
2021/12/11 08:37:42;;;;;;;7.10;6.40;;;;;;;8.15;100.00;98803.70;1721387;83;20936;-70
2021/12/11 08:40:12;;;;;;;10.45;7.22;;;;;;;8.14;100.00;98801.18;1721419;83;20929;-71
2021/12/11 08:42:39;;;;;;;9.23;7.17;;;;;;;8.12;100.00;98797.81;1721465;83;20940;-71
2021/12/11 08:45:09;;;;;;;10.23;7.80;;;;;;;8.06;100.00;98790.29;1721548;83;20945;-71
2021/12/11 08:47:39;;;;;;;10.78;9.68;;;;;;;8.05;100.00;98790.74;1721459;83;21131;-71
2021/12/11 08:50:13;;;;;;;11.88;10.70;;;;;;;8.05;100.00;98796.37;1721840;83;20933;-71
2021/12/11 08:52:41;;;;;;;10.43;9.20;;;;;;;8.06;100.00;98796.77;1721459;83;21469;-71
2021/12/11 08:55:13;;;;;;;11.22;10.03;;;;;;;8.05;100.00;98797.22;1721407;83;20937;-71
2021/12/11 08:57:41;;;;;;;10.08;8.30;;;;;;;8.05;100.00;98797.67;1721483;83;20929;-70
2021/12/11 09:00:29;;;;;;;8.50;7.30;;;;;;;8.03;100.00;98796.89;1721243;82;39039;-70
2021/12/11 09:03:04;;;;;;;7.53;5.80;;;;;;;8.04;100.00;98798.57;1721547;83;20933;-70
2021/12/11 09:05:45;;;;;;;6.83;6.12;;;;;;;8.09;100.00;98801.37;1721783;83;21057;-70
2021/12/11 09:08:27;;;;;;;7.83;7.08;;;;;;;8.11;100.00;98794.83;1721438;83;20967;-69
2021/12/11 09:11:10;;;;;;;9.48;8.45;;;;;;;8.09;100.00;98797.48;1720966;83;21424;-69
2021/12/11 09:13:46;;;;;;;8.70;6.60;;;;;;;8.06;100.00;98795.02;1711354;83;21125;-69
2021/12/11 09:16:32;;;;;;;7.40;6.50;;;;;;;8.04;100.00;98792.09;1721738;83;21004;-69
2021/12/11 09:19:13;;;;;;;8.30;7.42;;;;;;;8.06;100.00;98792.88;1721639;82;20976;-71
2021/12/11 09:21:51;;;;;;;7.50;6.20;;;;;;;8.03;100.00;98792.55;1721760;83;20937;-71
2021/12/11 09:24:30;;;;;;;7.50;6.65;;;;;;;8.06;100.00;98804.08;1721541;83;21016;-72
2021/12/11 09:27:13;;;;;;;6.53;5.70;;;;;;;8.08;100.00;98793.66;1721641;83;22133;-71
2021/12/11 09:29:57;;;;;;;8.85;6.78;;;;;;;8.08;100.00;98790.62;1721500;83;20956;-70
2021/12/11 09:32:45;;;;;;;7.53;5.75;;;;;;;8.11;100.00;98802.15;1721430;83;21085;-71
2021/12/11 09:35:23;;;;;;;8.70;6.60;;;;;;;8.11;100.00;98800.85;1721412;83;20999;-69
2021/12/11 09:37:53;;;;;;;6.92;5.70;;;;;;;8.12;100.00;98796.06;1721483;83;20948;-71
2021/12/11 09:40:43;;;;;;;9.23;6.97;;;;;;;8.16;100.00;98798.92;1721459;83;21127;-71
2021/12/11 09:43:15;;;;;;;7.00;6.30;;;;;;;8.18;100.00;98797.11;1721536;83;20965;-69
2021/12/11 09:45:43;;;;;;;8.53;6.67;;;;;;;8.18;100.00;98794.52;1717679;83;21064;-69
2021/12/11 09:48:15;;;;;;;7.65;5.70;;;;;;;8.21;100.00;98796.11;1721454;83;20985;-70
2021/12/11 09:50:55;;;;;;;6.95;5.75;;;;;;;8.21;100.00;98797.41;1722440;83;21008;-71
2021/12/11 09:53:20;;;;;;;7.67;6.53;;;;;;;8.17;100.00;98796.72;1730558;83;21166;-70
2021/12/11 09:55:46;;;;;;;10.05;7.42;;;;;;;8.14;100.00;98792.95;1731286;83;20920;-70
2021/12/11 09:58:20;;;;;;;8.53;6.22;;;;;;;8.13;100.00;98787.84;1731292;81;21093;-71
2021/12/11 10:01:03;;;;;;;8.58;6.28;;;;;;;8.13;100.00;98793.02;1731401;83;20936;-70
2021/12/11 10:03:33;;;;;;;9.03;7.55;;;;;;;8.12;100.00;98796.06;1731696;83;20988;-71
2021/12/11 10:06:15;;;;;;;12.53;7.55;;;;;;;8.13;100.00;98799.05;1731192;83;21395;-71
2021/12/11 10:08:44;;;;;;;12.47;7.72;;;;;;;8.11;100.00;98794.38;1731252;83;20913;-70
2021/12/11 10:11:23;;;;;;;11.68;7.67;;;;;;;8.11;100.00;98791.78;1731127;83;20944;-70
2021/12/11 10:13:54;;;;;;;12.10;8.98;;;;;;;8.12;100.00;98792.62;1731281;83;20979;-71
2021/12/11 10:16:23;;;;;;;11.05;7.87;;;;;;;8.12;100.00;98797.36;1731281;83;20944;-70
2021/12/11 10:18:50;;;;;;;10.75;7.08;;;;;;;8.14;100.00;98792.12;1731695;83;21128;-70
2021/12/11 10:21:21;;;;;;;8.08;6.25;;;;;;;8.18;100.00;98801.45;1731185;83;20968;-70
2021/12/11 10:23:51;;;;;;;8.60;6.62;;;;;;;8.21;100.00;98803.42;1731761;83;20960;-70
2021/12/11 10:26:19;;;;;;;11.53;8.85;;;;;;;8.23;100.00;98803.36;1731256;83;20948;-71
2021/12/11 10:28:51;;;;;;;8.73;6.28;;;;;;;8.22;100.00;98807.70;1731224;83;21528;-70
2021/12/11 10:31:22;;;;;;;10.88;7.78;;;;;;;8.19;100.00;98802.64;1731243;83;21107;-70
2021/12/11 10:33:49;;;;;;;8.00;6.72;;;;;;;8.19;100.00;98801.84;1731496;82;20936;-70
2021/12/11 10:36:19;;;;;;;13.38;10.58;;;;;;;8.21;100.00;98800.84;1731403;83;21031;-70
2021/12/11 10:38:47;;;;;;;16.35;10.95;;;;;;;8.24;100.00;98805.05;1731633;83;20940;-70
2021/12/11 10:41:15;;;;;;;23.90;16.95;;;;;;;8.25;100.00;98808.03;1731598;83;21503;-70
2021/12/11 10:43:53;;;;;;;21.77;14.55;;;;;;;8.25;100.00;98808.03;1731612;83;21576;-70
2021/12/11 10:46:17;;;;;;;8.95;7.42;;;;;;;8.25;100.00;98811.91;1731006;83;20976;-70
2021/12/11 10:48:44;;;;;;;9.85;7.67;;;;;;;8.27;100.00;98814.83;1731860;83;21036;-70
2021/12/11 10:51:19;;;;;;;9.33;5.80;;;;;;;8.28;100.00;98815.23;1731204;83;21091;-70
2021/12/11 10:53:48;;;;;;;5.40;4.22;;;;;;;8.33;100.00;98818.11;1731372;81;21055;-70
2021/12/11 10:56:19;;;;;;;4.30;3.83;;;;;;;8.34;100.00;98815.45;1731449;83;20968;-70
2021/12/11 10:58:50;;;;;;;3.27;2.77;;;;;;;8.35;100.00;98817.14;1731288;81;21004;-70
2021/12/11 11:01:29;;;;;;;3.80;2.45;;;;;;;8.38;100.00;98812.28;1731402;83;21401;-71
2021/12/11 11:04:01;;;;;;;4.65;3.35;;;;;;;8.36;100.00;98808.47;1731333;83;21007;-70
2021/12/11 11:06:28;;;;;;;3.95;3.37;;;;;;;8.38;100.00;98816.17;1731669;81;20908;-70
2021/12/11 11:08:55;;;;;;;5.62;3.80;;;;;;;8.42;100.00;98817.70;1731504;83;21783;-70
2021/12/11 11:11:25;;;;;;;5.83;3.42;;;;;;;8.45;100.00;98808.05;1731367;83;20984;-70
2021/12/11 11:13:51;;;;;;;5.53;3.65;;;;;;;8.48;100.00;98809.67;1731462;83;21105;-70
2021/12/11 11:16:19;;;;;;;6.15;4.10;;;;;;;8.52;100.00;98806.05;1731297;83;20964;-71
2021/12/11 11:18:47;;;;;;;6.65;3.55;;;;;;;8.56;100.00;98812.33;1731379;83;21124;-68
2021/12/11 11:21:25;;;;;;;4.08;2.60;;;;;;;8.58;100.00;98804.48;1731407;83;21468;-71
2021/12/11 11:23:52;;;;;;;3.58;2.20;;;;;;;8.59;100.00;98805.69;1730866;83;21027;-70
2021/12/11 11:26:26;;;;;;;3.85;2.65;;;;;;;8.63;100.00;98810.29;1731465;83;20967;-71
2021/12/11 11:28:54;;;;;;;4.75;2.47;;;;;;;8.60;100.00;98803.48;1731149;83;21491;-70
2021/12/11 11:31:26;;;;;;;8.20;3.90;;;;;;;8.56;100.00;98812.33;1731327;83;21035;-70
2021/12/11 11:33:54;;;;;;;2.95;2.30;;;;;;;8.52;100.00;98814.66;1731455;83;21196;-72
2021/12/11 11:36:23;;;;;;;3.17;2.65;;;;;;;8.49;100.00;98807.02;1731228;83;21409;-70
2021/12/11 11:38:54;;;;;;;4.92;3.45;;;;;;;8.47;100.00;98811.42;1731622;83;21424;-69
2021/12/11 11:41:26;;;;;;;7.22;5.17;;;;;;;8.45;100.00;98809.34;1731408;83;21035;-69
2021/12/11 11:43:53;;;;;;;7.20;4.45;;;;;;;8.47;100.00;98810.13;1731600;83;20941;-71
2021/12/11 11:46:19;;;;;;;3.65;2.98;;;;;;;8.53;100.00;98814.20;1731337;83;21128;-71
2021/12/11 11:48:48;;;;;;;8.40;3.75;;;;;;;8.54;100.00;98815.44;1731420;83;20952;-71
2021/12/11 11:51:28;;;;;;;5.33;3.58;;;;;;;8.53;100.00;98820.23;1730931;83;20980;-68
2021/12/11 11:53:55;;;;;;;3.87;2.65;;;;;;;8.51;100.00;98822.05;1721483;83;21024;-71
2021/12/11 11:56:25;;;;;;;6.33;4.80;;;;;;;8.50;100.00;98824.25;1721594;83;21063;-70
2021/12/11 11:58:52;;;;;;;7.33;4.45;;;;;;;8.53;100.00;98823.28;1721727;82;21128;-70